createdAt,value
2022-11-02T00:01:22.204Z,61.88
2022-11-02T00:03:50.221Z,62.77
2022-11-02T00:06:17.087Z,62.96
2022-11-02T00:08:43.743Z,62.89
2022-11-02T00:11:10.371Z,62.32
2022-11-02T00:13:37.029Z,62.23
2022-11-02T00:16:05.864Z,62.47
2022-11-02T00:18:33.597Z,62.73
2022-11-02T00:21:02.393Z,63.59
2022-11-02T00:23:29.688Z,64.44
2022-11-02T00:25:58.717Z,64.69
2022-11-02T00:28:28.540Z,64.06
2022-11-02T00:30:55.147Z,63.58
2022-11-02T00:33:21.794Z,63.35
2022-11-02T00:35:48.604Z,62.73
2022-11-02T00:38:16.599Z,62.70
2022-11-02T00:40:44.112Z,61.84
2022-11-02T00:43:11.145Z,62.42
2022-11-02T00:45:38.406Z,62.63
2022-11-02T00:48:06.047Z,62.25
2022-11-02T00:50:32.966Z,62.04
2022-11-02T00:52:59.851Z,62.30
2022-11-02T00:55:28.425Z,62.29
2022-11-02T00:57:59.953Z,62.95
2022-11-02T01:00:26.644Z,63.31
2022-11-02T01:02:53.272Z,63.72
2022-11-02T01:05:20.054Z,63.19
2022-11-02T01:07:47.693Z,63.19
2022-11-02T01:10:14.384Z,63.08
2022-11-02T01:12:42.360Z,62.69
2022-11-02T01:15:10.955Z,63.47
2022-11-02T01:17:38.396Z,64.35
2022-11-02T01:20:06.460Z,63.77
2022-11-02T01:22:33.156Z,63.67
2022-11-02T01:25:00.001Z,62.95
2022-11-02T01:27:26.621Z,63.29
2022-11-02T01:29:54.613Z,62.87
2022-11-02T01:32:21.277Z,63.58
2022-11-02T01:34:47.945Z,63.81
2022-11-02T01:37:15.421Z,64.04
2022-11-02T01:39:42.103Z,64.34
2022-11-02T01:42:18.312Z,65.00
2022-11-02T01:44:45.982Z,64.50
2022-11-02T01:47:19.528Z,64.23
2022-11-02T01:49:49.157Z,64.14
2022-11-02T01:52:20.544Z,64.94
2022-11-02T01:54:51.842Z,65.41
2022-11-02T01:57:22.008Z,66.10
2022-11-02T01:59:53.339Z,66.52
2022-11-02T02:02:23.941Z,65.77
2022-11-02T02:04:54.652Z,65.17
2022-11-02T02:07:24.365Z,65.27
2022-11-02T02:09:52.720Z,65.26
2022-11-02T02:12:21.055Z,64.69
2022-11-02T02:14:48.918Z,64.36
2022-11-02T02:17:36.254Z,64.37
2022-11-02T02:20:11.322Z,65.16
2022-11-02T02:23:16.711Z,65.21
2022-11-02T02:26:06.587Z,64.93
2022-11-02T02:28:41.574Z,65.28
2022-11-02T02:31:15.868Z,65.45
2022-11-02T02:33:48.215Z,65.08
2022-11-02T02:36:21.667Z,64.86
2022-11-02T02:38:55.977Z,65.40
2022-11-02T02:41:29.733Z,65.09
2022-11-02T02:44:00.584Z,65.32
2022-11-02T02:46:34.604Z,65.40
2022-11-02T02:49:04.554Z,65.08
2022-11-02T02:51:35.174Z,65.38
2022-11-02T02:54:06.291Z,65.39
2022-11-02T02:56:39.328Z,65.20
2022-11-02T02:59:14.153Z,65.42
2022-11-02T03:01:43.671Z,65.43
2022-11-02T03:04:12.651Z,65.75
2022-11-02T03:06:42.060Z,65.16
2022-11-02T03:09:19.144Z,65.23
2022-11-02T03:11:54.487Z,65.04
2022-11-02T03:14:37.430Z,64.83
2022-11-02T03:17:14.152Z,65.06
2022-11-02T03:19:50.484Z,64.74
2022-11-02T03:22:26.923Z,64.67
2022-11-02T03:25:00.301Z,64.37
2022-11-02T03:27:38.105Z,64.50
2022-11-02T03:30:11.521Z,64.36
2022-11-02T03:32:47.683Z,64.29
2022-11-02T03:35:19.355Z,64.23
2022-11-02T03:37:51.717Z,64.59
2022-11-02T03:40:24.780Z,64.27
2022-11-02T03:42:53.688Z,64.18
2022-11-02T03:45:24.858Z,64.54
2022-11-02T03:47:56.128Z,64.14
2022-11-02T03:50:24.201Z,64.82
2022-11-02T03:52:57.574Z,64.40
2022-11-02T03:55:30.568Z,64.91
2022-11-02T03:57:59.026Z,64.80
2022-11-02T04:00:34.444Z,65.01
2022-11-02T04:03:08.116Z,65.15
2022-11-02T04:05:40.215Z,65.77
2022-11-02T04:08:30.378Z,65.84
2022-11-02T04:11:19.037Z,65.93
2022-11-02T04:14:05.655Z,66.24
2022-11-02T04:16:37.988Z,66.26
2022-11-02T04:19:28.404Z,65.58
2022-11-02T04:22:22.773Z,66.16
2022-11-02T04:25:12.640Z,66.12
2022-11-02T04:27:40.635Z,65.97
2022-11-02T04:30:09.563Z,66.51
2022-11-02T04:32:57.631Z,65.77
2022-11-02T04:35:26.716Z,66.31
2022-11-02T04:38:13.121Z,66.06
2022-11-02T04:40:40.521Z,66.54
2022-11-02T04:43:07.618Z,66.53
2022-11-02T04:45:35.608Z,66.55
2022-11-02T04:48:06.389Z,66.77
2022-11-02T04:50:34.105Z,66.66
2022-11-02T04:53:03.026Z,66.98
2022-11-02T04:55:31.608Z,66.79
2022-11-02T04:57:59.313Z,67.26
2022-11-02T05:00:26.712Z,67.36
2022-11-02T05:02:54.298Z,67.17
2022-11-02T05:05:24.036Z,67.43
2022-11-02T05:07:53.743Z,67.63
2022-11-02T05:10:20.479Z,67.47
2022-11-02T05:12:48.462Z,67.27
2022-11-02T05:15:41.063Z,67.46
2022-11-02T05:18:08.589Z,66.89
2022-11-02T05:20:37.195Z,67.33
2022-11-02T05:23:04.066Z,66.50
2022-11-02T05:25:31.422Z,66.70
2022-11-02T05:27:58.792Z,66.50
2022-11-02T05:30:26.324Z,66.33
2022-11-02T05:32:56.505Z,66.01
2022-11-02T05:35:23.870Z,65.79
2022-11-02T05:37:55.042Z,65.48
2022-11-02T05:40:21.728Z,65.95
2022-11-02T05:42:48.408Z,65.85
2022-11-02T05:45:15.977Z,66.08
2022-11-02T05:47:44.790Z,66.36
2022-11-02T05:50:11.485Z,66.34
2022-11-02T05:52:38.130Z,66.44
2022-11-02T05:55:07.168Z,66.64
2022-11-02T05:57:33.812Z,66.25
2022-11-02T06:00:00.998Z,66.54
2022-11-02T06:02:27.614Z,66.77
2022-11-02T06:04:54.275Z,67.27
2022-11-02T06:07:21.061Z,66.47
2022-11-02T06:09:47.743Z,66.79
2022-11-02T06:12:16.126Z,66.57
2022-11-02T06:14:42.740Z,66.09
2022-11-02T06:17:09.372Z,65.90
2022-11-02T06:19:36.419Z,66.04
2022-11-02T06:22:03.070Z,65.43
2022-11-02T06:24:29.696Z,65.28
2022-11-02T06:26:56.469Z,65.87
2022-11-02T06:29:24.932Z,65.72
2022-11-02T06:31:51.580Z,65.40
2022-11-02T06:34:18.218Z,65.40
2022-11-02T06:36:44.876Z,65.63
2022-11-02T06:39:11.557Z,65.51
2022-11-02T06:41:38.164Z,65.39
2022-11-02T06:44:05.077Z,65.33
2022-11-02T06:46:33.079Z,65.13
2022-11-02T06:48:59.874Z,64.97
2022-11-02T06:51:26.510Z,65.44
2022-11-02T06:53:53.256Z,65.57
2022-11-02T06:56:19.928Z,65.41
2022-11-02T06:58:46.570Z,65.34
2022-11-02T07:01:15.328Z,65.24
2022-11-02T07:03:43.856Z,64.93
2022-11-02T07:06:14.173Z,64.59
2022-11-02T07:08:42.337Z,64.46
2022-11-02T07:11:13.281Z,64.59
2022-11-02T07:13:39.940Z,64.28
2022-11-02T07:16:07.027Z,64.72
2022-11-02T07:18:34.042Z,64.72
2022-11-02T07:21:02.548Z,64.79
2022-11-02T07:23:29.297Z,64.95
2022-11-02T07:25:56.024Z,64.82
2022-11-02T07:28:22.668Z,65.20
2022-11-02T07:30:49.430Z,65.15
2022-11-02T07:33:16.111Z,65.15
2022-11-02T07:35:42.734Z,65.12
2022-11-02T07:38:10.945Z,65.17
2022-11-02T07:40:38.916Z,65.37
2022-11-02T07:43:06.612Z,64.95
2022-11-02T07:45:48.185Z,64.74
2022-11-02T07:48:14.846Z,64.87
2022-11-02T07:50:41.602Z,64.91
2022-11-02T07:53:10.693Z,64.86
2022-11-02T07:55:37.329Z,64.68
2022-11-02T07:58:07.994Z,64.43
2022-11-02T08:00:37.253Z,64.10
2022-11-02T08:03:06.121Z,63.90
2022-11-02T08:05:35.617Z,63.38
2022-11-02T08:08:04.800Z,63.29
2022-11-02T08:10:37.427Z,63.19
2022-11-02T08:13:07.157Z,63.09
2022-11-02T08:15:33.789Z,62.74
2022-11-02T08:18:02.218Z,63.05
2022-11-02T08:20:29.345Z,63.49
2022-11-02T08:22:56.018Z,63.53
2022-11-02T08:25:22.748Z,63.63
2022-11-02T08:27:51.060Z,63.17
2022-11-02T08:30:18.316Z,62.76
2022-11-02T08:32:44.905Z,63.22
2022-11-02T08:35:11.511Z,63.26
2022-11-02T08:37:38.147Z,63.46
2022-11-02T08:40:05.980Z,62.32
2022-11-02T08:42:32.705Z,61.82
2022-11-02T08:45:00.713Z,61.67
2022-11-02T08:47:27.301Z,61.25
2022-11-02T08:49:53.930Z,60.35
2022-11-02T08:52:20.557Z,60.09
2022-11-02T08:54:47.188Z,59.64
2022-11-02T08:57:13.929Z,58.86
2022-11-02T08:59:40.570Z,59.21
2022-11-02T09:02:10.000Z,59.03
2022-11-02T09:04:36.802Z,59.09
2022-11-02T09:07:03.422Z,58.60
2022-11-02T09:09:30.068Z,58.79
2022-11-02T09:11:56.741Z,58.60
2022-11-02T09:14:24.072Z,58.77
2022-11-02T09:16:50.777Z,59.13
2022-11-02T09:19:18.822Z,58.58
2022-11-02T09:21:45.506Z,57.59
2022-11-02T09:24:12.095Z,56.67
2022-11-02T09:26:38.715Z,57.02
2022-11-02T09:29:05.519Z,56.76
2022-11-02T09:31:32.505Z,55.86
2022-11-02T09:33:59.130Z,55.65
2022-11-02T09:36:27.203Z,55.29
2022-11-02T09:38:53.836Z,55.26
2022-11-02T09:41:25.402Z,54.28
2022-11-02T09:44:02.861Z,54.31
2022-11-02T09:46:33.652Z,53.84
2022-11-02T09:49:03.318Z,54.52
2022-11-02T09:51:35.467Z,53.57
2022-11-02T09:54:11.761Z,53.41
2022-11-02T09:56:44.498Z,53.53
2022-11-02T09:59:15.058Z,53.62
2022-11-02T10:01:50.734Z,53.74
2022-11-02T10:04:49.238Z,53.48
2022-11-02T10:07:29.616Z,53.95
2022-11-02T10:10:00.501Z,54.22
2022-11-02T10:12:37.929Z,53.66
2022-11-02T10:15:11.070Z,53.46
2022-11-02T10:17:41.400Z,53.97
2022-11-02T10:20:22.770Z,54.00
2022-11-02T10:22:51.277Z,54.39
2022-11-02T10:25:18.147Z,54.33
2022-11-02T10:27:48.245Z,54.44
2022-11-02T10:30:18.422Z,54.39
2022-11-02T10:32:49.819Z,54.56
2022-11-02T10:35:51.435Z,54.27
2022-11-02T10:38:27.782Z,54.24
2022-11-02T10:41:16.367Z,54.61
2022-11-02T10:43:57.861Z,54.10
2022-11-02T10:49:38.037Z,54.31
2022-11-02T10:56:28.984Z,54.43
2022-11-02T10:59:02.204Z,54.17
2022-11-02T11:01:31.096Z,54.44
2022-11-02T11:03:59.785Z,54.27
2022-11-02T11:06:29.980Z,53.82
2022-11-02T11:09:02.978Z,53.68
2022-11-02T11:11:33.705Z,53.55
2022-11-02T11:16:53.409Z,53.53
2022-11-02T11:19:40.601Z,53.39
2022-11-02T11:22:25.445Z,53.52
2022-11-02T11:24:52.705Z,53.29
2022-11-02T11:27:23.401Z,53.02
2022-11-02T11:29:53.236Z,53.37
2022-11-02T11:32:25.788Z,53.68
2022-11-02T11:35:00.798Z,53.46
2022-11-02T11:37:27.649Z,52.87
2022-11-02T11:39:59.265Z,53.17
2022-11-02T11:42:31.235Z,53.06
2022-11-02T11:45:02.989Z,53.11
2022-11-02T11:47:32.696Z,52.91
2022-11-02T11:50:19.739Z,52.84
2022-11-02T11:53:09.945Z,52.92
2022-11-02T11:55:46.780Z,52.51
2022-11-02T11:58:18.841Z,52.34
2022-11-02T12:00:45.518Z,52.40
2022-11-02T12:03:14.292Z,52.34
2022-11-02T12:05:55.625Z,52.22
2022-11-02T12:08:37.760Z,52.08
2022-11-02T12:11:19.213Z,51.85
2022-11-02T12:14:02.590Z,52.04
2022-11-02T12:16:42.924Z,52.13
2022-11-02T12:19:29.827Z,52.39
2022-11-02T12:22:07.604Z,52.62
2022-11-02T12:24:52.885Z,52.30
2022-11-02T12:27:32.323Z,52.40
2022-11-02T12:30:17.094Z,52.21
2022-11-02T12:33:22.819Z,52.18
2022-11-02T12:36:02.857Z,52.66
2022-11-02T12:38:53.477Z,52.68
2022-11-02T12:41:37.104Z,52.94
2022-11-02T12:44:13.886Z,53.14
2022-11-02T12:46:49.087Z,53.21
2022-11-02T12:49:34.630Z,53.00
2022-11-02T12:52:11.211Z,53.34
2022-11-02T12:54:45.005Z,53.23
2022-11-02T12:57:15.412Z,53.47
2022-11-02T12:59:43.848Z,53.58
2022-11-02T13:02:16.828Z,53.53
2022-11-02T13:04:49.474Z,53.35
2022-11-02T13:07:20.540Z,53.32
2022-11-02T13:09:54.912Z,52.73
2022-11-02T13:12:24.269Z,52.60
2022-11-02T13:14:53.440Z,52.98
2022-11-02T13:17:26.902Z,52.89
2022-11-02T13:19:55.701Z,52.77
2022-11-02T13:22:28.640Z,52.83
2022-11-02T13:25:03.386Z,52.70
2022-11-02T13:27:36.468Z,52.23
2022-11-02T13:30:13.055Z,52.20
2022-11-02T13:32:45.594Z,52.33
2022-11-02T13:35:20.852Z,52.54
2022-11-02T13:37:52.828Z,52.56
2022-11-02T13:40:25.037Z,52.44
2022-11-02T13:43:30.992Z,51.92
2022-11-02T13:46:17.393Z,52.30
2022-11-02T13:48:56.903Z,52.08
2022-11-02T13:51:34.768Z,52.49
2022-11-02T13:54:06.536Z,52.59
2022-11-02T13:56:37.346Z,52.11
2022-11-02T13:59:06.458Z,52.28
2022-11-02T14:01:38.376Z,52.46
2022-11-02T14:04:09.021Z,52.24
2022-11-02T14:06:47.168Z,52.25
2022-11-02T14:09:30.758Z,52.22
2022-11-02T14:12:41.895Z,52.25
2022-11-02T14:15:44.847Z,52.38
2022-11-02T14:18:14.648Z,52.36
2022-11-02T14:20:44.425Z,52.57
2022-11-02T14:23:34.629Z,52.29
2022-11-02T14:26:01.700Z,52.39
2022-11-02T14:28:33.975Z,52.35
2022-11-02T14:31:32.453Z,52.23
2022-11-02T14:34:12.325Z,52.37
2022-11-02T14:36:53.685Z,51.86
2022-11-02T14:39:30.724Z,51.51
2022-11-02T14:42:11.557Z,50.72
2022-11-02T14:44:59.149Z,50.66
2022-11-02T14:47:28.704Z,51.17
2022-11-02T14:49:58.020Z,51.55
2022-11-02T14:52:28.618Z,51.85
2022-11-02T14:55:01.982Z,51.83
2022-11-02T14:57:32.915Z,51.82
2022-11-02T15:00:03.941Z,52.01
2022-11-02T15:02:38.660Z,52.24
2022-11-02T15:05:22.789Z,52.22
2022-11-02T15:07:54.674Z,52.27
2022-11-02T15:10:45.439Z,52.38
2022-11-02T15:13:36.157Z,51.82
2022-11-02T15:16:23.384Z,51.83
2022-11-02T15:18:50.536Z,51.45
2022-11-02T15:21:28.055Z,51.44
2022-11-02T15:24:19.851Z,51.62
2022-11-02T15:26:52.270Z,52.12
2022-11-02T15:29:37.009Z,51.84
2022-11-02T15:32:09.376Z,51.95
2022-11-02T15:34:41.589Z,52.40
2022-11-02T15:37:14.537Z,52.37
2022-11-02T15:39:48.333Z,52.20
2022-11-02T15:42:21.633Z,52.23
2022-11-02T15:45:42.615Z,51.96
2022-11-02T15:48:21.229Z,52.31
2022-11-02T15:50:59.419Z,52.07
2022-11-02T15:53:39.867Z,52.03
2022-11-02T15:56:28.409Z,52.02
2022-11-02T15:59:11.142Z,52.32
2022-11-02T16:01:40.041Z,52.47
2022-11-02T16:04:11.688Z,52.77
2022-11-02T16:06:40.797Z,52.97
2022-11-02T16:09:30.645Z,53.80
2022-11-02T16:12:03.749Z,54.55
2022-11-02T16:14:31.878Z,55.33
2022-11-02T16:16:58.633Z,55.68
2022-11-02T16:19:25.340Z,54.91
2022-11-02T16:21:54.933Z,54.40
2022-11-02T16:24:24.102Z,54.04
2022-11-02T16:26:50.899Z,54.32
2022-11-02T16:29:30.418Z,55.93
2022-11-02T16:31:57.383Z,55.87
2022-11-02T16:34:27.369Z,55.78
2022-11-02T16:36:54.607Z,55.13
2022-11-02T16:39:25.472Z,54.67
2022-11-02T16:41:57.446Z,54.90
2022-11-02T16:44:27.583Z,55.28
2022-11-02T16:46:58.364Z,55.86
2022-11-02T16:49:26.398Z,56.62
2022-11-02T16:51:54.605Z,57.22
2022-11-02T16:54:40.262Z,57.11
2022-11-02T16:57:14.913Z,56.74
2022-11-02T16:59:53.416Z,56.61
2022-11-02T17:02:31.067Z,56.50
2022-11-02T17:05:02.413Z,56.78
2022-11-02T17:07:35.749Z,57.27
2022-11-02T17:10:04.641Z,57.36
2022-11-02T17:12:34.557Z,57.30
2022-11-02T17:15:11.663Z,57.29
2022-11-02T17:17:39.919Z,57.09
2022-11-02T17:20:20.423Z,57.25
2022-11-02T17:22:53.677Z,57.43
2022-11-02T17:25:22.485Z,57.91
2022-11-02T17:27:50.383Z,57.38
2022-11-02T17:30:43.822Z,57.23
2022-11-02T17:33:22.094Z,56.98
2022-11-02T17:35:50.713Z,56.94
2022-11-02T17:38:19.363Z,57.39
2022-11-02T17:40:51.945Z,58.21
2022-11-02T17:43:19.083Z,58.96
2022-11-02T17:45:54.033Z,59.87
2022-11-02T17:48:20.693Z,59.23
2022-11-02T17:50:47.516Z,58.73
2022-11-02T17:53:14.596Z,58.40
2022-11-02T17:55:41.590Z,58.91
2022-11-02T17:58:08.834Z,58.88
2022-11-02T18:00:36.971Z,58.98
2022-11-02T18:03:10.921Z,58.94
2022-11-02T18:05:37.944Z,59.69
2022-11-02T18:08:06.337Z,59.63
2022-11-02T18:10:36.680Z,59.65
2022-11-02T18:13:04.489Z,59.76
2022-11-02T18:15:32.816Z,60.07
2022-11-02T18:18:00.111Z,59.60
2022-11-02T18:20:28.901Z,59.62
2022-11-02T18:22:56.950Z,58.90
2022-11-02T18:25:26.477Z,59.03
2022-11-02T18:27:53.908Z,58.97
2022-11-02T18:30:20.825Z,59.28
2022-11-02T18:32:48.012Z,59.50
2022-11-02T18:35:17.597Z,58.86
2022-11-02T18:37:46.003Z,59.02
2022-11-02T18:40:16.217Z,59.01
2022-11-02T18:42:43.949Z,58.98
2022-11-02T18:45:12.545Z,58.71
2022-11-02T18:47:39.622Z,58.86
2022-11-02T18:50:08.052Z,59.03
2022-11-02T18:52:34.957Z,59.11
2022-11-02T18:55:05.047Z,59.81
2022-11-02T18:57:32.359Z,60.02
2022-11-02T19:00:00.627Z,61.97
2022-11-02T19:02:27.549Z,61.36
2022-11-02T19:04:54.265Z,61.11
2022-11-02T19:07:39.629Z,60.92
2022-11-02T19:10:08.381Z,60.42
2022-11-02T19:12:35.083Z,60.26
2022-11-02T19:15:02.143Z,60.48
2022-11-02T19:17:28.861Z,60.25
2022-11-02T19:19:55.666Z,60.19
2022-11-02T19:22:24.548Z,59.74
2022-11-02T19:24:51.998Z,60.86
2022-11-02T19:27:21.634Z,60.41
2022-11-02T19:29:48.519Z,60.80
2022-11-02T19:32:15.656Z,60.91
2022-11-02T19:34:57.108Z,60.52
2022-11-02T19:37:24.777Z,61.46
2022-11-02T19:39:51.434Z,61.50
2022-11-02T19:42:18.068Z,60.76
2022-11-02T19:44:46.060Z,60.48
2022-11-02T19:47:12.678Z,59.91
2022-11-02T19:49:39.387Z,59.97
2022-11-02T19:52:06.082Z,60.09
2022-11-02T19:54:32.915Z,60.74
2022-11-02T19:56:59.541Z,61.47
2022-11-02T19:59:26.437Z,61.97
2022-11-02T20:01:54.565Z,62.08
2022-11-02T20:04:21.352Z,62.20
2022-11-02T20:06:48.211Z,62.30
2022-11-02T20:09:17.014Z,62.60
2022-11-02T20:11:44.672Z,62.52
2022-11-02T20:14:12.520Z,63.24
2022-11-02T20:16:39.453Z,63.24
2022-11-02T20:19:09.003Z,62.95
2022-11-02T20:21:41.494Z,62.13
2022-11-02T20:24:10.178Z,62.26
2022-11-02T20:26:38.952Z,61.91
2022-11-02T20:29:06.704Z,62.39
2022-11-02T20:31:34.571Z,62.19
2022-11-02T20:34:02.090Z,61.83
2022-11-02T20:36:30.524Z,61.74
2022-11-02T20:38:57.945Z,61.05
2022-11-02T20:41:26.056Z,61.25
2022-11-02T20:43:55.087Z,61.36
2022-11-02T20:46:37.035Z,61.82
2022-11-02T20:49:19.802Z,62.11
2022-11-02T20:51:53.111Z,62.45
2022-11-02T20:54:20.288Z,62.72
2022-11-02T20:56:47.122Z,61.94
2022-11-02T20:59:14.141Z,62.54
2022-11-02T21:01:41.009Z,62.14
2022-11-02T21:04:07.897Z,62.25
2022-11-02T21:06:34.696Z,62.87
2022-11-02T21:09:09.042Z,61.74
2022-11-02T21:11:57.100Z,61.80
2022-11-02T21:14:23.792Z,61.92
2022-11-02T21:16:50.416Z,62.12
2022-11-02T21:19:17.039Z,62.35
2022-11-02T21:21:43.688Z,62.64
2022-11-02T21:24:12.509Z,62.89
2022-11-02T21:26:39.158Z,63.00
2022-11-02T21:29:05.834Z,63.73
2022-11-02T21:31:32.654Z,63.31
2022-11-02T21:33:59.360Z,62.66
2022-11-02T21:36:26.017Z,62.27
2022-11-02T21:38:52.731Z,62.67
2022-11-02T21:41:26.036Z,62.75
2022-11-02T21:43:55.385Z,62.85
2022-11-02T21:46:24.141Z,63.00
2022-11-02T21:48:50.902Z,62.28
2022-11-02T21:51:19.346Z,62.00
2022-11-02T21:53:47.616Z,62.44
2022-11-02T21:56:15.915Z,63.30
2022-11-02T21:58:46.117Z,63.10
2022-11-02T22:01:34.087Z,62.82
2022-11-02T22:04:01.279Z,62.64
2022-11-02T22:06:31.240Z,62.25
2022-11-02T22:08:58.853Z,62.72
2022-11-02T22:11:29.065Z,62.76
2022-11-02T22:13:58.679Z,63.17
2022-11-02T22:16:29.913Z,63.56
2022-11-02T22:18:58.286Z,63.48
2022-11-02T22:21:25.860Z,64.01
2022-11-02T22:23:53.020Z,64.57
2022-11-02T22:26:21.695Z,65.13
2022-11-02T22:28:49.195Z,64.53
2022-11-02T22:31:19.092Z,64.47
2022-11-02T22:33:48.083Z,64.32
2022-11-02T22:36:16.848Z,64.84
2022-11-02T22:38:53.875Z,63.97
2022-11-02T22:41:23.967Z,63.81
2022-11-02T22:43:52.484Z,64.27
2022-11-02T22:46:21.349Z,64.36
2022-11-02T22:48:48.217Z,64.26
2022-11-02T22:51:15.136Z,64.29
2022-11-02T22:53:41.857Z,64.86
2022-11-02T22:56:13.523Z,64.69
2022-11-02T22:58:41.309Z,64.80
2022-11-02T23:01:10.136Z,64.02
2022-11-02T23:03:38.880Z,63.84
2022-11-02T23:06:06.943Z,63.14
2022-11-02T23:08:37.323Z,63.36
2022-11-02T23:11:23.239Z,63.75
2022-11-02T23:13:52.568Z,64.54
2022-11-02T23:16:23.795Z,63.57
2022-11-02T23:19:15.507Z,63.46
2022-11-02T23:21:45.933Z,63.78
2022-11-02T23:24:31.395Z,63.72
2022-11-02T23:26:58.171Z,63.63
2022-11-02T23:29:43.610Z,63.83
2022-11-02T23:32:27.182Z,63.41
2022-11-02T23:35:15.252Z,63.67
2022-11-02T23:37:42.925Z,64.06
2022-11-02T23:40:11.250Z,64.14
2022-11-02T23:42:38.197Z,63.81
2022-11-02T23:45:06.072Z,64.29
2022-11-02T23:47:51.716Z,64.11
2022-11-02T23:50:39.930Z,63.66
2022-11-02T23:53:29.683Z,63.88
2022-11-02T23:56:15.948Z,64.27
2022-11-02T23:58:44.270Z,64.00
